sensor_id;sensor_type;location;lat;lon;timestamp;P1;durP1;ratioP1;P2;durP2;ratioP2
34984;SDS011;21190;58.750;17.004;2023-02-28T00:01:29;0.95;;;0.40;;
34984;SDS011;21190;58.750;17.004;2023-02-28T00:03:57;0.28;;;0.22;;
34984;SDS011;21190;58.750;17.004;2023-02-28T00:06:25;0.88;;;0.40;;
34984;SDS011;21190;58.750;17.004;2023-02-28T00:08:52;2.58;;;0.50;;
34984;SDS011;21190;58.750;17.004;2023-02-28T00:11:19;3.00;;;0.50;;
34984;SDS011;21190;58.750;17.004;2023-02-28T00:13:47;0.77;;;0.60;;
34984;SDS011;21190;58.750;17.004;2023-02-28T00:16:15;1.02;;;0.93;;
34984;SDS011;21190;58.750;17.004;2023-02-28T00:18:44;0.60;;;0.40;;
34984;SDS011;21190;58.750;17.004;2023-02-28T00:21:14;0.60;;;0.35;;
34984;SDS011;21190;58.750;17.004;2023-02-28T00:23:42;2.65;;;0.50;;
34984;SDS011;21190;58.750;17.004;2023-02-28T00:26:09;0.28;;;0.22;;
34984;SDS011;21190;58.750;17.004;2023-02-28T00:28:36;1.05;;;0.25;;
34984;SDS011;21190;58.750;17.004;2023-02-28T00:31:03;0.88;;;0.40;;
34984;SDS011;21190;58.750;17.004;2023-02-28T00:33:31;0.80;;;0.38;;
34984;SDS011;21190;58.750;17.004;2023-02-28T00:36:02;1.45;;;0.38;;
34984;SDS011;21190;58.750;17.004;2023-02-28T00:38:33;0.52;;;0.40;;
34984;SDS011;21190;58.750;17.004;2023-02-28T00:41:01;1.55;;;0.63;;
34984;SDS011;21190;58.750;17.004;2023-02-28T00:43:32;0.70;;;0.45;;
34984;SDS011;21190;58.750;17.004;2023-02-28T00:46:03;0.93;;;0.38;;
34984;SDS011;21190;58.750;17.004;2023-02-28T00:48:30;0.90;;;0.30;;
34984;SDS011;21190;58.750;17.004;2023-02-28T00:50:58;0.90;;;0.40;;
34984;SDS011;21190;58.750;17.004;2023-02-28T00:53:25;0.65;;;0.40;;
34984;SDS011;21190;58.750;17.004;2023-02-28T00:55:52;0.63;;;0.30;;
34984;SDS011;21190;58.750;17.004;2023-02-28T00:58:19;0.30;;;0.30;;
34984;SDS011;21190;58.750;17.004;2023-02-28T01:00:47;1.10;;;0.50;;
34984;SDS011;21190;58.750;17.004;2023-02-28T01:03:16;3.22;;;0.40;;
34984;SDS011;21190;58.750;17.004;2023-02-28T01:05:44;1.15;;;0.38;;
34984;SDS011;21190;58.750;17.004;2023-02-28T01:08:11;0.45;;;0.28;;
34984;SDS011;21190;58.750;17.004;2023-02-28T01:10:40;0.63;;;0.55;;
34984;SDS011;21190;58.750;17.004;2023-02-28T01:13:07;0.60;;;0.40;;
34984;SDS011;21190;58.750;17.004;2023-02-28T01:15:34;0.88;;;0.40;;
34984;SDS011;21190;58.750;17.004;2023-02-28T01:18:01;1.00;;;0.40;;
34984;SDS011;21190;58.750;17.004;2023-02-28T01:20:28;0.77;;;0.32;;
34984;SDS011;21190;58.750;17.004;2023-02-28T01:22:55;1.92;;;0.32;;
34984;SDS011;21190;58.750;17.004;2023-02-28T01:25:22;0.60;;;0.32;;
34984;SDS011;21190;58.750;17.004;2023-02-28T01:27:50;0.68;;;0.40;;
34984;SDS011;21190;58.750;17.004;2023-02-28T01:30:17;1.25;;;0.35;;
34984;SDS011;21190;58.750;17.004;2023-02-28T01:32:44;1.25;;;0.70;;
34984;SDS011;21190;58.750;17.004;2023-02-28T01:35:11;1.13;;;0.40;;
34984;SDS011;21190;58.750;17.004;2023-02-28T01:37:38;0.45;;;0.30;;
34984;SDS011;21190;58.750;17.004;2023-02-28T01:40:05;4.38;;;0.50;;
34984;SDS011;21190;58.750;17.004;2023-02-28T01:42:33;0.47;;;0.30;;
34984;SDS011;21190;58.750;17.004;2023-02-28T01:47:35;0.50;;;0.20;;
34984;SDS011;21190;58.750;17.004;2023-02-28T01:50:06;0.30;;;0.30;;
34984;SDS011;21190;58.750;17.004;2023-02-28T01:52:37;0.30;;;0.30;;
34984;SDS011;21190;58.750;17.004;2023-02-28T01:55:06;0.50;;;0.50;;
34984;SDS011;21190;58.750;17.004;2023-02-28T01:57:36;1.13;;;0.30;;
34984;SDS011;21190;58.750;17.004;2023-02-28T02:00:16;0.68;;;0.50;;
34984;SDS011;21190;58.750;17.004;2023-02-28T02:02:46;1.52;;;0.38;;
34984;SDS011;21190;58.750;17.004;2023-02-28T02:05:20;1.33;;;0.40;;
34984;SDS011;21190;58.750;17.004;2023-02-28T02:07:54;1.13;;;0.50;;
34984;SDS011;21190;58.750;17.004;2023-02-28T02:16:23;0.93;;;0.50;;
34984;SDS011;21190;58.750;17.004;2023-02-28T02:33:06;0.32;;;0.30;;
34984;SDS011;21190;58.750;17.004;2023-02-28T02:41:35;0.20;;;0.20;;
34984;SDS011;21190;58.750;17.004;2023-02-28T02:44:20;0.70;;;0.35;;
34984;SDS011;21190;58.750;17.004;2023-02-28T02:47:09;0.50;;;0.32;;
34984;SDS011;21190;58.750;17.004;2023-02-28T02:49:39;0.47;;;0.40;;
34984;SDS011;21190;58.750;17.004;2023-02-28T02:52:13;0.70;;;0.40;;
34984;SDS011;21190;58.750;17.004;2023-02-28T02:54:45;1.42;;;0.20;;
34984;SDS011;21190;58.750;17.004;2023-02-28T02:57:21;1.17;;;0.40;;
34984;SDS011;21190;58.750;17.004;2023-02-28T02:59:56;1.33;;;0.35;;
34984;SDS011;21190;58.750;17.004;2023-02-28T03:02:25;0.63;;;0.35;;
34984;SDS011;21190;58.750;17.004;2023-02-28T03:04:59;1.15;;;0.65;;
34984;SDS011;21190;58.750;17.004;2023-02-28T03:07:30;0.60;;;0.50;;
34984;SDS011;21190;58.750;17.004;2023-02-28T03:09:57;1.02;;;0.35;;
34984;SDS011;21190;58.750;17.004;2023-02-28T03:12:30;0.43;;;0.40;;
34984;SDS011;21190;58.750;17.004;2023-02-28T03:15:08;0.85;;;0.50;;
34984;SDS011;21190;58.750;17.004;2023-02-28T03:17:54;0.98;;;0.50;;
34984;SDS011;21190;58.750;17.004;2023-02-28T03:20:35;1.38;;;0.25;;
34984;SDS011;21190;58.750;17.004;2023-02-28T03:23:29;1.48;;;0.40;;
34984;SDS011;21190;58.750;17.004;2023-02-28T03:26:12;1.30;;;0.38;;
34984;SDS011;21190;58.750;17.004;2023-02-28T03:31:36;0.50;;;0.40;;
34984;SDS011;21190;58.750;17.004;2023-02-28T03:36:57;1.13;;;0.50;;
34984;SDS011;21190;58.750;17.004;2023-02-28T03:39:36;2.40;;;0.30;;
34984;SDS011;21190;58.750;17.004;2023-02-28T03:42:09;0.65;;;0.50;;
34984;SDS011;21190;58.750;17.004;2023-02-28T03:44:43;0.90;;;0.55;;
34984;SDS011;21190;58.750;17.004;2023-02-28T03:47:36;1.00;;;0.50;;
34984;SDS011;21190;58.750;17.004;2023-02-28T03:50:14;0.50;;;0.40;;
34984;SDS011;21190;58.750;17.004;2023-02-28T03:52:51;0.85;;;0.40;;
34984;SDS011;21190;58.750;17.004;2023-02-28T03:55:32;0.68;;;0.43;;
34984;SDS011;21190;58.750;17.004;2023-02-28T03:58:11;1.15;;;0.57;;
34984;SDS011;21190;58.750;17.004;2023-02-28T04:00:49;0.77;;;0.50;;
34984;SDS011;21190;58.750;17.004;2023-02-28T04:05:53;0.32;;;0.30;;
34984;SDS011;21190;58.750;17.004;2023-02-28T04:08:22;1.17;;;0.50;;
34984;SDS011;21190;58.750;17.004;2023-02-28T04:10:54;0.50;;;0.40;;
34984;SDS011;21190;58.750;17.004;2023-02-28T04:13:26;0.60;;;0.50;;
34984;SDS011;21190;58.750;17.004;2023-02-28T04:15:53;0.90;;;0.40;;
34984;SDS011;21190;58.750;17.004;2023-02-28T04:18:20;1.17;;;0.55;;
34984;SDS011;21190;58.750;17.004;2023-02-28T04:20:47;0.60;;;0.45;;
34984;SDS011;21190;58.750;17.004;2023-02-28T04:23:14;0.63;;;0.38;;
34984;SDS011;21190;58.750;17.004;2023-02-28T04:25:41;1.13;;;0.80;;
34984;SDS011;21190;58.750;17.004;2023-02-28T04:28:08;1.27;;;0.40;;
34984;SDS011;21190;58.750;17.004;2023-02-28T04:30:37;2.03;;;0.40;;
34984;SDS011;21190;58.750;17.004;2023-02-28T04:33:04;0.40;;;0.40;;
34984;SDS011;21190;58.750;17.004;2023-02-28T04:35:31;0.95;;;0.70;;
34984;SDS011;21190;58.750;17.004;2023-02-28T04:37:58;0.82;;;0.45;;
34984;SDS011;21190;58.750;17.004;2023-02-28T04:40:25;0.70;;;0.45;;
34984;SDS011;21190;58.750;17.004;2023-02-28T04:42:52;1.15;;;0.60;;
34984;SDS011;21190;58.750;17.004;2023-02-28T04:45:19;0.77;;;0.47;;
34984;SDS011;21190;58.750;17.004;2023-02-28T04:47:46;1.25;;;0.60;;
34984;SDS011;21190;58.750;17.004;2023-02-28T04:50:13;1.17;;;0.80;;
34984;SDS011;21190;58.750;17.004;2023-02-28T04:52:39;0.70;;;0.60;;
34984;SDS011;21190;58.750;17.004;2023-02-28T04:55:07;3.13;;;0.50;;
34984;SDS011;21190;58.750;17.004;2023-02-28T04:57:34;1.23;;;0.80;;
34984;SDS011;21190;58.750;17.004;2023-02-28T05:00:01;1.00;;;0.40;;
34984;SDS011;21190;58.750;17.004;2023-02-28T05:02:34;1.10;;;0.60;;
34984;SDS011;21190;58.750;17.004;2023-02-28T05:05:01;1.50;;;0.50;;
34984;SDS011;21190;58.750;17.004;2023-02-28T05:07:28;1.02;;;0.60;;
34984;SDS011;21190;58.750;17.004;2023-02-28T05:09:55;3.83;;;0.80;;
34984;SDS011;21190;58.750;17.004;2023-02-28T05:12:22;0.95;;;0.52;;
34984;SDS011;21190;58.750;17.004;2023-02-28T05:14:49;1.13;;;0.50;;
34984;SDS011;21190;58.750;17.004;2023-02-28T05:17:16;1.08;;;0.47;;
34984;SDS011;21190;58.750;17.004;2023-02-28T05:19:43;1.10;;;0.52;;
34984;SDS011;21190;58.750;17.004;2023-02-28T05:22:14;1.95;;;0.65;;
34984;SDS011;21190;58.750;17.004;2023-02-28T05:24:43;2.67;;;0.35;;
34984;SDS011;21190;58.750;17.004;2023-02-28T05:27:10;0.50;;;0.30;;
34984;SDS011;21190;58.750;17.004;2023-02-28T05:29:37;0.85;;;0.50;;
34984;SDS011;21190;58.750;17.004;2023-02-28T05:32:09;1.83;;;0.82;;
34984;SDS011;21190;58.750;17.004;2023-02-28T05:34:38;1.23;;;0.50;;
34984;SDS011;21190;58.750;17.004;2023-02-28T05:37:06;1.25;;;0.70;;
34984;SDS011;21190;58.750;17.004;2023-02-28T05:39:38;2.13;;;1.10;;
34984;SDS011;21190;58.750;17.004;2023-02-28T05:42:05;1.23;;;0.50;;
34984;SDS011;21190;58.750;17.004;2023-02-28T05:44:33;1.58;;;0.70;;
34984;SDS011;21190;58.750;17.004;2023-02-28T05:47:00;6.90;;;1.00;;
34984;SDS011;21190;58.750;17.004;2023-02-28T05:49:27;2.25;;;0.88;;
34984;SDS011;21190;58.750;17.004;2023-02-28T05:51:54;1.23;;;0.60;;
34984;SDS011;21190;58.750;17.004;2023-02-28T05:54:21;1.08;;;0.50;;
34984;SDS011;21190;58.750;17.004;2023-02-28T05:56:48;3.75;;;0.90;;
34984;SDS011;21190;58.750;17.004;2023-02-28T05:59:15;1.42;;;0.93;;
34984;SDS011;21190;58.750;17.004;2023-02-28T06:01:43;0.77;;;0.55;;
34984;SDS011;21190;58.750;17.004;2023-02-28T06:04:15;1.35;;;0.80;;
34984;SDS011;21190;58.750;17.004;2023-02-28T06:06:57;2.58;;;0.88;;
34984;SDS011;21190;58.750;17.004;2023-02-28T06:09:24;1.08;;;0.80;;
34984;SDS011;21190;58.750;17.004;2023-02-28T06:11:51;1.40;;;0.70;;
34984;SDS011;21190;58.750;17.004;2023-02-28T06:14:19;1.85;;;1.02;;
34984;SDS011;21190;58.750;17.004;2023-02-28T06:16:47;1.42;;;0.90;;
34984;SDS011;21190;58.750;17.004;2023-02-28T06:19:14;1.63;;;0.93;;
34984;SDS011;21190;58.750;17.004;2023-02-28T06:21:42;1.20;;;0.77;;
34984;SDS011;21190;58.750;17.004;2023-02-28T06:24:09;1.60;;;0.75;;
34984;SDS011;21190;58.750;17.004;2023-02-28T06:26:36;2.00;;;0.65;;
34984;SDS011;21190;58.750;17.004;2023-02-28T06:29:03;1.70;;;0.82;;
34984;SDS011;21190;58.750;17.004;2023-02-28T06:31:30;1.17;;;0.80;;
34984;SDS011;21190;58.750;17.004;2023-02-28T06:33:58;2.17;;;0.90;;
34984;SDS011;21190;58.750;17.004;2023-02-28T06:36:25;3.90;;;1.25;;
34984;SDS011;21190;58.750;17.004;2023-02-28T06:38:52;2.70;;;1.00;;
34984;SDS011;21190;58.750;17.004;2023-02-28T06:41:25;1.58;;;0.80;;
34984;SDS011;21190;58.750;17.004;2023-02-28T06:43:53;1.45;;;0.60;;
34984;SDS011;21190;58.750;17.004;2023-02-28T06:46:20;2.70;;;1.05;;
34984;SDS011;21190;58.750;17.004;2023-02-28T06:48:48;2.97;;;1.20;;
34984;SDS011;21190;58.750;17.004;2023-02-28T06:51:16;1.95;;;0.88;;
34984;SDS011;21190;58.750;17.004;2023-02-28T06:53:46;0.70;;;0.70;;
34984;SDS011;21190;58.750;17.004;2023-02-28T06:56:14;3.15;;;1.02;;
34984;SDS011;21190;58.750;17.004;2023-02-28T06:58:45;4.68;;;1.13;;
34984;SDS011;21190;58.750;17.004;2023-02-28T07:01:13;1.58;;;0.98;;
34984;SDS011;21190;58.750;17.004;2023-02-28T07:03:40;3.65;;;1.13;;
34984;SDS011;21190;58.750;17.004;2023-02-28T07:06:07;1.60;;;0.90;;
34984;SDS011;21190;58.750;17.004;2023-02-28T07:08:34;2.83;;;0.85;;
34984;SDS011;21190;58.750;17.004;2023-02-28T07:11:02;16.50;;;2.33;;
34984;SDS011;21190;58.750;17.004;2023-02-28T07:13:30;3.65;;;0.80;;
34984;SDS011;21190;58.750;17.004;2023-02-28T07:15:58;2.65;;;0.82;;
34984;SDS011;21190;58.750;17.004;2023-02-28T07:18:27;1.77;;;0.75;;
34984;SDS011;21190;58.750;17.004;2023-02-28T07:20:55;1.02;;;0.70;;
34984;SDS011;21190;58.750;17.004;2023-02-28T07:23:22;1.33;;;0.70;;
34984;SDS011;21190;58.750;17.004;2023-02-28T07:25:50;3.53;;;0.70;;
34984;SDS011;21190;58.750;17.004;2023-02-28T07:28:18;0.77;;;0.60;;
34984;SDS011;21190;58.750;17.004;2023-02-28T07:30:45;1.70;;;0.70;;
34984;SDS011;21190;58.750;17.004;2023-02-28T07:33:12;3.08;;;0.80;;
34984;SDS011;21190;58.750;17.004;2023-02-28T07:35:40;5.03;;;0.77;;
34984;SDS011;21190;58.750;17.004;2023-02-28T07:38:08;4.80;;;0.70;;
34984;SDS011;21190;58.750;17.004;2023-02-28T07:40:35;1.75;;;0.65;;
34984;SDS011;21190;58.750;17.004;2023-02-28T07:43:03;1.50;;;0.60;;
34984;SDS011;21190;58.750;17.004;2023-02-28T07:45:30;1.25;;;0.55;;
34984;SDS011;21190;58.750;17.004;2023-02-28T07:48:01;0.90;;;0.50;;
34984;SDS011;21190;58.750;17.004;2023-02-28T07:50:28;0.98;;;0.60;;
34984;SDS011;21190;58.750;17.004;2023-02-28T07:52:58;1.27;;;0.70;;
34984;SDS011;21190;58.750;17.004;2023-02-28T07:55:25;1.70;;;0.80;;
34984;SDS011;21190;58.750;17.004;2023-02-28T07:57:52;1.35;;;0.70;;
34984;SDS011;21190;58.750;17.004;2023-02-28T08:00:20;1.27;;;0.63;;
34984;SDS011;21190;58.750;17.004;2023-02-28T08:02:47;1.38;;;0.73;;
34984;SDS011;21190;58.750;17.004;2023-02-28T08:05:15;3.67;;;0.73;;
34984;SDS011;21190;58.750;17.004;2023-02-28T08:07:42;1.27;;;0.52;;
34984;SDS011;21190;58.750;17.004;2023-02-28T08:10:09;0.38;;;0.38;;
34984;SDS011;21190;58.750;17.004;2023-02-28T08:12:36;0.90;;;0.45;;
34984;SDS011;21190;58.750;17.004;2023-02-28T08:15:03;0.85;;;0.50;;
34984;SDS011;21190;58.750;17.004;2023-02-28T08:17:30;0.60;;;0.38;;
34984;SDS011;21190;58.750;17.004;2023-02-28T08:20:00;3.00;;;0.70;;
34984;SDS011;21190;58.750;17.004;2023-02-28T08:22:27;5.22;;;0.60;;
34984;SDS011;21190;58.750;17.004;2023-02-28T08:24:55;0.47;;;0.47;;
34984;SDS011;21190;58.750;17.004;2023-02-28T08:27:22;2.88;;;0.70;;
34984;SDS011;21190;58.750;17.004;2023-02-28T08:29:49;1.23;;;0.70;;
34984;SDS011;21190;58.750;17.004;2023-02-28T08:32:16;2.70;;;0.70;;
34984;SDS011;21190;58.750;17.004;2023-02-28T08:34:55;1.45;;;0.63;;
34984;SDS011;21190;58.750;17.004;2023-02-28T08:37:22;1.33;;;0.50;;
34984;SDS011;21190;58.750;17.004;2023-02-28T08:39:49;1.02;;;0.50;;
34984;SDS011;21190;58.750;17.004;2023-02-28T08:42:20;1.42;;;0.77;;
34984;SDS011;21190;58.750;17.004;2023-02-28T08:44:47;1.30;;;0.70;;
34984;SDS011;21190;58.750;17.004;2023-02-28T08:47:15;0.47;;;0.43;;
34984;SDS011;21190;58.750;17.004;2023-02-28T08:49:42;0.50;;;0.35;;
34984;SDS011;21190;58.750;17.004;2023-02-28T08:52:09;0.85;;;0.40;;
34984;SDS011;21190;58.750;17.004;2023-02-28T08:54:36;0.60;;;0.30;;
34984;SDS011;21190;58.750;17.004;2023-02-28T08:57:03;2.22;;;0.68;;
34984;SDS011;21190;58.750;17.004;2023-02-28T08:59:30;0.30;;;0.30;;
34984;SDS011;21190;58.750;17.004;2023-02-28T09:01:57;0.70;;;0.38;;
34984;SDS011;21190;58.750;17.004;2023-02-28T09:04:24;3.20;;;0.30;;
34984;SDS011;21190;58.750;17.004;2023-02-28T09:06:51;3.03;;;0.50;;
34984;SDS011;21190;58.750;17.004;2023-02-28T09:09:18;1.13;;;0.30;;
34984;SDS011;21190;58.750;17.004;2023-02-28T09:11:45;1.95;;;0.43;;
34984;SDS011;21190;58.750;17.004;2023-02-28T09:14:12;1.60;;;0.40;;
34984;SDS011;21190;58.750;17.004;2023-02-28T09:16:39;0.28;;;0.22;;
34984;SDS011;21190;58.750;17.004;2023-02-28T09:19:09;1.90;;;0.38;;
34984;SDS011;21190;58.750;17.004;2023-02-28T09:21:37;0.85;;;0.20;;
34984;SDS011;21190;58.750;17.004;2023-02-28T09:24:04;1.73;;;0.45;;
34984;SDS011;21190;58.750;17.004;2023-02-28T09:26:32;2.10;;;0.40;;
34984;SDS011;21190;58.750;17.004;2023-02-28T09:29:12;0.65;;;0.30;;
34984;SDS011;21190;58.750;17.004;2023-02-28T09:31:40;0.95;;;0.35;;
34984;SDS011;21190;58.750;17.004;2023-02-28T09:34:07;1.02;;;0.20;;
34984;SDS011;21190;58.750;17.004;2023-02-28T09:36:35;0.40;;;0.30;;
34984;SDS011;21190;58.750;17.004;2023-02-28T09:39:11;1.80;;;0.30;;
34984;SDS011;21190;58.750;17.004;2023-02-28T09:41:41;0.90;;;0.50;;
34984;SDS011;21190;58.750;17.004;2023-02-28T09:44:16;2.40;;;0.43;;
34984;SDS011;21190;58.750;17.004;2023-02-28T09:46:50;0.10;;;0.10;;
34984;SDS011;21190;58.750;17.004;2023-02-28T09:49:21;1.08;;;0.30;;
34984;SDS011;21190;58.750;17.004;2023-02-28T09:51:56;0.73;;;0.38;;
34984;SDS011;21190;58.750;17.004;2023-02-28T09:54:27;2.05;;;0.40;;
34984;SDS011;21190;58.750;17.004;2023-02-28T09:56:58;1.38;;;0.30;;
34984;SDS011;21190;58.750;17.004;2023-02-28T10:05:12;3.83;;;0.30;;
34984;SDS011;21190;58.750;17.004;2023-02-28T10:10:23;1.67;;;0.32;;
34984;SDS011;21190;58.750;17.004;2023-02-28T10:12:57;1.58;;;0.35;;
34984;SDS011;21190;58.750;17.004;2023-02-28T10:15:29;1.45;;;0.38;;
34984;SDS011;21190;58.750;17.004;2023-02-28T10:18:00;1.63;;;0.40;;
34984;SDS011;21190;58.750;17.004;2023-02-28T10:23:20;1.00;;;0.40;;
34984;SDS011;21190;58.750;17.004;2023-02-28T10:26:04;1.70;;;0.63;;
34984;SDS011;21190;58.750;17.004;2023-02-28T10:28:38;8.20;;;0.63;;
34984;SDS011;21190;58.750;17.004;2023-02-28T10:31:05;13.70;;;0.93;;
34984;SDS011;21190;58.750;17.004;2023-02-28T10:33:44;5.97;;;1.08;;
34984;SDS011;21190;58.750;17.004;2023-02-28T10:36:13;16.63;;;1.05;;
34984;SDS011;21190;58.750;17.004;2023-02-28T10:38:45;4.55;;;1.27;;
34984;SDS011;21190;58.750;17.004;2023-02-28T10:41:14;7.18;;;0.57;;
34984;SDS011;21190;58.750;17.004;2023-02-28T10:44:35;8.05;;;1.05;;
34984;SDS011;21190;58.750;17.004;2023-02-28T10:46:55;13.38;;;1.00;;
34984;SDS011;21190;58.750;17.004;2023-02-28T10:49:25;10.15;;;2.47;;
34984;SDS011;21190;58.750;17.004;2023-02-28T10:51:55;16.55;;;1.55;;
34984;SDS011;21190;58.750;17.004;2023-02-28T10:59:36;12.55;;;1.48;;
34984;SDS011;21190;58.750;17.004;2023-02-28T11:02:11;10.88;;;1.13;;
34984;SDS011;21190;58.750;17.004;2023-02-28T11:04:56;5.05;;;0.60;;
34984;SDS011;21190;58.750;17.004;2023-02-28T11:07:23;5.97;;;0.50;;
34984;SDS011;21190;58.750;17.004;2023-02-28T11:09:56;5.68;;;0.52;;
34984;SDS011;21190;58.750;17.004;2023-02-28T11:15:25;3.35;;;0.30;;
34984;SDS011;21190;58.750;17.004;2023-02-28T11:18:19;6.20;;;0.40;;
34984;SDS011;21190;58.750;17.004;2023-02-28T11:20:49;7.78;;;0.93;;
34984;SDS011;21190;58.750;17.004;2023-02-28T11:23:19;1.30;;;0.50;;
34984;SDS011;21190;58.750;17.004;2023-02-28T11:25:53;3.67;;;0.40;;
34984;SDS011;21190;58.750;17.004;2023-02-28T11:28:29;0.73;;;0.30;;
34984;SDS011;21190;58.750;17.004;2023-02-28T11:31:05;4.93;;;0.30;;
34984;SDS011;21190;58.750;17.004;2023-02-28T11:38:41;8.93;;;0.40;;
34984;SDS011;21190;58.750;17.004;2023-02-28T11:46:47;2.58;;;0.30;;
34984;SDS011;21190;58.750;17.004;2023-02-28T12:03:11;3.63;;;0.60;;
34984;SDS011;21190;58.750;17.004;2023-02-28T12:23:40;2.63;;;0.30;;
34984;SDS011;21190;58.750;17.004;2023-02-28T12:26:06;12.65;;;2.45;;
34984;SDS011;21190;58.750;17.004;2023-02-28T12:28:54;1.15;;;0.40;;
34984;SDS011;21190;58.750;17.004;2023-02-28T12:31:35;1.30;;;0.30;;
34984;SDS011;21190;58.750;17.004;2023-02-28T12:34:06;8.77;;;0.77;;
34984;SDS011;21190;58.750;17.004;2023-02-28T12:36:39;12.50;;;0.85;;
34984;SDS011;21190;58.750;17.004;2023-02-28T12:39:12;2.28;;;0.38;;
34984;SDS011;21190;58.750;17.004;2023-02-28T12:42:03;7.03;;;0.90;;
34984;SDS011;21190;58.750;17.004;2023-02-28T12:44:35;4.85;;;0.38;;
34984;SDS011;21190;58.750;17.004;2023-02-28T12:47:15;2.35;;;0.30;;
34984;SDS011;21190;58.750;17.004;2023-02-28T12:49:49;1.88;;;0.25;;
34984;SDS011;21190;58.750;17.004;2023-02-28T12:52:25;4.70;;;0.57;;
34984;SDS011;21190;58.750;17.004;2023-02-28T12:55:03;4.57;;;0.50;;
34984;SDS011;21190;58.750;17.004;2023-02-28T12:57:56;1.40;;;0.45;;
34984;SDS011;21190;58.750;17.004;2023-02-28T13:06:17;1.75;;;0.35;;
34984;SDS011;21190;58.750;17.004;2023-02-28T13:08:59;4.80;;;0.20;;
34984;SDS011;21190;58.750;17.004;2023-02-28T13:11:41;2.65;;;0.32;;
34984;SDS011;21190;58.750;17.004;2023-02-28T13:17:12;2.72;;;0.22;;
34984;SDS011;21190;58.750;17.004;2023-02-28T13:19:55;6.40;;;0.47;;
34984;SDS011;21190;58.750;17.004;2023-02-28T13:22:44;2.67;;;0.40;;
34984;SDS011;21190;58.750;17.004;2023-02-28T13:25:55;4.50;;;0.70;;
34984;SDS011;21190;58.750;17.004;2023-02-28T13:28:07;0.40;;;0.22;;
34984;SDS011;21190;58.750;17.004;2023-02-28T13:35:46;1.80;;;0.30;;
34984;SDS011;21190;58.750;17.004;2023-02-28T13:38:18;2.70;;;0.28;;
34984;SDS011;21190;58.750;17.004;2023-02-28T13:40:49;0.43;;;0.20;;
34984;SDS011;21190;58.750;17.004;2023-02-28T13:43:17;1.05;;;0.35;;
34984;SDS011;21190;58.750;17.004;2023-02-28T13:46:10;1.30;;;0.47;;
34984;SDS011;21190;58.750;17.004;2023-02-28T13:48:39;2.20;;;0.47;;
34984;SDS011;21190;58.750;17.004;2023-02-28T13:51:27;4.63;;;0.40;;
34984;SDS011;21190;58.750;17.004;2023-02-28T14:05:21;9.88;;;1.40;;
34984;SDS011;21190;58.750;17.004;2023-02-28T14:07:59;3.80;;;0.98;;
34984;SDS011;21190;58.750;17.004;2023-02-28T14:10:41;3.53;;;0.47;;
34984;SDS011;21190;58.750;17.004;2023-02-28T14:13:36;2.53;;;0.90;;
34984;SDS011;21190;58.750;17.004;2023-02-28T14:16:14;0.45;;;0.20;;
34984;SDS011;21190;58.750;17.004;2023-02-28T14:18:50;5.37;;;0.50;;
34984;SDS011;21190;58.750;17.004;2023-02-28T14:21:26;3.08;;;0.30;;
34984;SDS011;21190;58.750;17.004;2023-02-28T14:35:27;1.67;;;0.40;;
34984;SDS011;21190;58.750;17.004;2023-02-28T14:37:56;5.68;;;0.30;;
34984;SDS011;21190;58.750;17.004;2023-02-28T14:42:59;4.85;;;0.65;;
34984;SDS011;21190;58.750;17.004;2023-02-28T14:45:31;1.42;;;0.32;;
34984;SDS011;21190;58.750;17.004;2023-02-28T14:48:00;0.32;;;0.28;;
34984;SDS011;21190;58.750;17.004;2023-02-28T14:50:30;2.40;;;0.40;;
34984;SDS011;21190;58.750;17.004;2023-02-28T14:53:00;4.28;;;0.40;;
34984;SDS011;21190;58.750;17.004;2023-02-28T14:55:30;3.58;;;0.30;;
34984;SDS011;21190;58.750;17.004;2023-02-28T14:58:00;2.72;;;0.47;;
34984;SDS011;21190;58.750;17.004;2023-02-28T15:00:31;1.48;;;0.50;;
34984;SDS011;21190;58.750;17.004;2023-02-28T15:03:00;1.65;;;0.40;;
34984;SDS011;21190;58.750;17.004;2023-02-28T15:05:47;2.78;;;0.55;;
34984;SDS011;21190;58.750;17.004;2023-02-28T15:08:18;3.63;;;0.73;;
34984;SDS011;21190;58.750;17.004;2023-02-28T15:10:54;9.35;;;0.50;;
34984;SDS011;21190;58.750;17.004;2023-02-28T15:13:38;24.23;;;1.45;;
34984;SDS011;21190;58.750;17.004;2023-02-28T15:16:11;1.75;;;0.55;;
34984;SDS011;21190;58.750;17.004;2023-02-28T15:18:49;1.08;;;0.15;;
34984;SDS011;21190;58.750;17.004;2023-02-28T15:21:25;7.47;;;0.80;;
34984;SDS011;21190;58.750;17.004;2023-02-28T15:27:18;4.15;;;0.63;;
34984;SDS011;21190;58.750;17.004;2023-02-28T15:29:57;4.32;;;0.50;;
34984;SDS011;21190;58.750;17.004;2023-02-28T15:34:59;1.92;;;0.40;;
34984;SDS011;21190;58.750;17.004;2023-02-28T15:40:42;0.93;;;0.40;;
34984;SDS011;21190;58.750;17.004;2023-02-28T15:45:51;3.70;;;0.38;;
34984;SDS011;21190;58.750;17.004;2023-02-28T15:48:28;12.38;;;0.90;;
34984;SDS011;21190;58.750;17.004;2023-02-28T15:53:31;4.30;;;1.25;;
34984;SDS011;21190;58.750;17.004;2023-02-28T15:56:04;9.18;;;1.15;;
34984;SDS011;21190;58.750;17.004;2023-02-28T15:58:39;19.10;;;1.70;;
34984;SDS011;21190;58.750;17.004;2023-02-28T16:01:16;19.42;;;1.98;;
34984;SDS011;21190;58.750;17.004;2023-02-28T16:03:47;20.98;;;2.10;;
34984;SDS011;21190;58.750;17.004;2023-02-28T16:08:44;36.08;;;3.78;;
34984;SDS011;21190;58.750;17.004;2023-02-28T16:11:11;36.15;;;3.70;;
34984;SDS011;21190;58.750;17.004;2023-02-28T16:13:38;37.28;;;3.63;;
34984;SDS011;21190;58.750;17.004;2023-02-28T16:16:05;17.35;;;1.63;;
34984;SDS011;21190;58.750;17.004;2023-02-28T16:18:32;18.13;;;1.42;;
34984;SDS011;21190;58.750;17.004;2023-02-28T16:20:59;27.48;;;2.10;;
34984;SDS011;21190;58.750;17.004;2023-02-28T16:23:26;7.63;;;1.13;;
34984;SDS011;21190;58.750;17.004;2023-02-28T16:25:53;11.90;;;0.98;;
34984;SDS011;21190;58.750;17.004;2023-02-28T16:28:21;19.15;;;1.75;;
34984;SDS011;21190;58.750;17.004;2023-02-28T16:30:53;10.50;;;1.00;;
34984;SDS011;21190;58.750;17.004;2023-02-28T16:33:20;5.78;;;1.35;;
34984;SDS011;21190;58.750;17.004;2023-02-28T16:35:47;11.98;;;1.27;;
34984;SDS011;21190;58.750;17.004;2023-02-28T16:38:14;14.55;;;1.30;;
34984;SDS011;21190;58.750;17.004;2023-02-28T16:40:41;17.40;;;1.77;;
34984;SDS011;21190;58.750;17.004;2023-02-28T16:43:10;19.23;;;1.73;;
34984;SDS011;21190;58.750;17.004;2023-02-28T16:45:42;15.73;;;1.27;;
34984;SDS011;21190;58.750;17.004;2023-02-28T16:48:13;19.48;;;2.10;;
34984;SDS011;21190;58.750;17.004;2023-02-28T16:50:42;12.93;;;2.00;;
34984;SDS011;21190;58.750;17.004;2023-02-28T16:53:12;16.38;;;1.95;;
34984;SDS011;21190;58.750;17.004;2023-02-28T16:55:39;20.00;;;1.80;;
34984;SDS011;21190;58.750;17.004;2023-02-28T16:58:06;20.25;;;1.92;;
34984;SDS011;21190;58.750;17.004;2023-02-28T17:00:42;18.38;;;2.97;;
34984;SDS011;21190;58.750;17.004;2023-02-28T17:03:23;11.75;;;2.38;;
34984;SDS011;21190;58.750;17.004;2023-02-28T17:05:59;18.60;;;1.40;;
34984;SDS011;21190;58.750;17.004;2023-02-28T17:08:26;27.75;;;2.65;;
34984;SDS011;21190;58.750;17.004;2023-02-28T17:10:55;21.73;;;1.52;;
34984;SDS011;21190;58.750;17.004;2023-02-28T17:13:22;29.45;;;2.50;;
34984;SDS011;21190;58.750;17.004;2023-02-28T17:15:49;24.88;;;2.10;;
34984;SDS011;21190;58.750;17.004;2023-02-28T17:18:17;27.42;;;1.92;;
34984;SDS011;21190;58.750;17.004;2023-02-28T17:20:45;20.45;;;3.15;;
34984;SDS011;21190;58.750;17.004;2023-02-28T17:23:13;14.02;;;1.58;;
34984;SDS011;21190;58.750;17.004;2023-02-28T17:25:40;19.38;;;1.77;;
34984;SDS011;21190;58.750;17.004;2023-02-28T17:28:08;19.92;;;2.08;;
34984;SDS011;21190;58.750;17.004;2023-02-28T17:30:35;15.73;;;1.90;;